Latest Coastal Weather Observations for Yeppoon

IDQ60701

Issued at 10:12 am EST Saturday 6 February 2016 (issued every 10 minutes, with the page automatically refreshed every 10 minutes)

About coastal observations | Map of coastal stations | Coastal observations for QLD | Marine services | Other Formats
Station Details ID: 033294 Name: YEPPOON THE ESPLANADE Lat: -23.14 Lon: 150.75 Height: 5.5 m
Data from the previous 72 hours. | See also: Recent months at Yeppoon
Date/Time
EST
Temp

°C
Wind Pressure Rain
since 9am
mm
Weather Cloud Vis
km
Sea
Height
m
Swell
Dir
 
Speed
knots
Gust
knots
hPa Trend Height
m
Period
s
Dir
06/10:00am 25.4 ESE 14 22 1006.4 - 0.4 - - - - - - -
06/09:30am 25.0 E 16 26 1006.4 - 0.4 - - - - - - -
06/09:25am 25.1 ESE 16 26 1006.5 - 0.4 - - - - - - -
06/09:00am 24.8 E 17 24 1006.6 - 17.0 Recent precip. - - - - - -
06/08:30am 24.5 ESE 16 23 1006.8 - 16.8 - - - - - - -
06/08:00am 24.2 ESE 13 22 1006.9 - 16.2 - - - - - - -
06/07:30am 24.5 ESE 14 22 1006.9 - 14.6 - - - - - - -
06/07:00am 24.4 E 14 20 1006.8 - 12.2 - - - - - - -
06/06:30am 24.3 ESE 13 20 1006.5 - 10.0 - - - - - - -
06/06:00am 24.4 E 17 23 1006.1 - 8.4 Rain - - - - - -
06/05:30am 24.4 E 18 26 1005.7 - 7.2 - - - - - - -
06/05:20am 24.8 ESE 15 28 1005.5 - 7.0 - - - - - - -
06/05:00am 24.9 ESE 12 20 1005.1 - 6.4 - - - - - - -
06/04:31am 25.9 E 15 27 1004.7 - 6.2 - - - - - - -
06/04:30am 25.8 E 15 22 1004.7 - 6.2 - - - - - - -
06/04:00am 26.4 E 17 23 1004.6 - 6.0 - - - - - - -
06/03:30am 26.4 E 16 23 1004.6 - 6.0 - - - - - - -
06/03:00am 26.9 E 17 23 1004.3 - 6.0 - - - - - - -
06/02:30am 27.0 E 18 26 1004.4 - 6.0 - - - - - - -
06/02:00am 27.0 E 20 26 1004.4 - 6.0 - - - - - - -
06/01:38am 26.8 ESE 16 27 1004.6 - 6.0 - - - - - - -
06/01:30am 26.8 E 19 25 1004.8 - 6.0 - - - - - - -
06/01:00am 26.7 ESE 16 24 1005.0 - 6.0 - - - - - - -
06/12:30am 26.8 ESE 15 23 1005.6 - 6.0 - - - - - - -
06/12:10am 26.6 ESE 15 25 1006.0 - 6.0 - - - - - - -
06/12:00am 26.7 ESE 17 24 1006.3 - 6.0 - - - - - - -
 
Date/Time
EST
Temp

°C
Wind Pressure Rain
since 9am
mm
Weather Cloud Vis
km
Sea
Height
m
Swell
Dir
 
Speed
knots
Gust
knots
hPa Trend Height
m
Period
s
Dir
05/11:30pm 26.5 ESE 15 24 1006.6 - 6.0 - - - - - - -
05/11:06pm 26.7 ESE 16 26 1006.9 - 6.0 - - - - - - -
05/11:00pm 26.7 ESE 15 23 1007.0 - 6.0 - - - - - - -
05/10:30pm 26.2 E 18 26 1007.3 - 6.0 - - - - - - -
05/10:01pm 25.8 ESE 17 27 1007.5 - 6.0 - - - - - - -
05/10:00pm 25.8 ESE 16 25 1007.6 - 6.0 - - - - - - -
05/09:34pm 25.9 ESE 17 28 1007.4 - 6.0 - - - - - - -
05/09:30pm 25.8 ESE 18 26 1007.6 - 6.0 - - - - - - -
05/09:00pm 24.6 ESE 15 24 1007.4 - 6.0 Recent precip. - - - - - -
05/08:30pm 25.8 ESE 16 25 1007.1 - 5.6 - - - - - - -
05/08:11pm 25.3 ESE 18 28 1006.9 - 5.6 - - - - - - -
05/08:00pm 25.9 ESE 17 25 1006.7 - 5.6 - - - - - - -
05/07:49pm 25.9 ESE 17 28 1006.5 - 5.6 - - - - - - -
05/07:30pm 25.8 ESE 16 24 1006.3 - 5.6 - - - - - - -
05/07:00pm 25.2 ESE 17 27 1005.9 - 5.6 - - - - - - -
05/06:37pm 25.8 ESE 16 27 1005.5 - 5.6 - - - - - - -
05/06:30pm 25.9 ESE 15 23 1005.3 - 5.6 - - - - - - -
05/06:02pm 25.9 ESE 15 25 1005.0 - 5.6 - - - - - - -
05/06:00pm 26.0 ESE 14 23 1004.9 - 5.6 - - - - - - -
05/05:30pm 25.4 ESE 15 23 1004.5 - 5.6 - - - - - - -
05/05:00pm 25.4 ESE 15 25 1004.1 - 5.6 - - - - - - -
05/04:52pm 25.3 ESE 15 25 1004.0 - 5.6 - - - - - - -
05/04:30pm 24.7 ESE 14 22 1004.0 - 5.6 - - - - - - -
05/04:00pm 25.1 SE 13 19 1004.0 - 5.2 - - - - - - -
05/03:30pm 25.1 SE 13 19 1004.1 - 4.8 - - - - - - -
05/03:00pm 25.1 ESE 13 21 1004.3 - 4.0 Rain - - - - - -
05/02:34pm 25.1 ESE 16 27 1004.4 - 3.8 - - - - - - -
05/02:30pm 25.1 ESE 14 21 1004.5 - 3.8 - - - - - - -
05/02:03pm 25.6 ESE 16 27 1004.5 - 3.0 - - - - - - -
05/02:00pm 25.7 ESE 16 24 1004.5 - 3.0 - - - - - - -
05/01:30pm 25.6 ESE 16 23 1004.6 - 3.0 - - - - - - -
05/01:20pm 25.6 ESE 15 25 1004.6 - 3.0 - - - - - - -
05/01:00pm 25.7 ESE 15 24 1004.6 - 3.0 - - - - - - -
05/12:30pm 25.4 ESE 17 25 1004.7 - 2.8 - - - - - - -
05/12:08pm 25.4 ESE 16 26 1004.8 - 2.4 - - - - - - -
05/12:00pm 25.3 ESE 16 23 1004.9 - 2.4 Rain - - - - - -
05/11:35am 25.9 ESE 15 27 1005.0 - 1.8 - - - - - - -
05/11:30am 26.4 ESE 14 24 1005.0 - 1.8 - - - - - - -
05/11:00am 26.0 ESE 16 23 1005.1 - 1.8 - - - - - - -
05/10:30am 25.7 ESE 17 28 1005.0 - 1.6 - - - - - - -
05/10:01am 25.8 ESE 15 26 1005.1 - 1.6 - - - - - - -
05/10:00am 25.8 ESE 15 24 1005.1 - 1.6 - - - - - - -
05/09:30am 25.8 ESE 15 23 1005.0 - 1.4 - - - - - - -
05/09:00am 25.7 SE 10 15 1005.2 - 54.8 Rain - - - - - -
05/08:30am 25.4 SE 11 19 1005.1 - 54.6 - - - - - - -
05/08:00am 24.9 SE 11 17 1004.7 - 54.2 - - - - - - -
05/07:30am 24.8 SE 12 18 1004.2 - 54.2 - - - - - - -
05/07:00am 24.6 SE 11 17 1003.7 - 54.2 - - - - - - -
05/06:30am 24.5 SE 13 20 1003.1 - 54.2 - - - - - - -
05/06:00am 24.8 SE 12 17 1003.0 - 54.0 Recent precip. - - - - - -
05/05:30am 24.9 SE 12 17 1002.8 - 53.8 - - - - - - -
05/05:00am 24.9 SE 13 19 1002.6 - 51.8 - - - - - - -
05/04:30am 24.9 ESE 11 18 1002.8 - 48.6 - - - - - - -
05/04:00am 24.7 SE 12 18 1002.7 - 44.8 - - - - - - -
05/03:30am 24.8 SE 11 16 1002.6 - 41.4 - - - - - - -
05/03:00am 24.8 SE 12 17 1002.3 - 37.6 Rain - - - - - -
05/02:30am 24.8 SE 13 19 1002.3 - 33.0 - - - - - - -
05/02:00am 25.0 SE 10 15 1002.4 - 26.0 - - - - - - -
05/01:30am 25.3 SE 11 25 1002.5 - 21.8 - - - - - - -
05/01:00am 25.7 SE 12 19 1002.7 - 17.4 - - - - - - -
05/12:30am 26.4 W 1 4 1003.0 - 15.4 - - - - - - -
05/12:00am 26.4 W 4 6 1003.3 - 15.4 - - - - - - -
 
Date/Time
EST
Temp

°C
Wind Pressure Rain
since 9am
mm
Weather Cloud Vis
km
Sea
Height
m
Swell
Dir
 
Speed
knots
Gust
knots
hPa Trend Height
m
Period
s
Dir
04/11:30pm 26.2 W 1 3 1003.8 - 15.4 - - - - - - -
04/11:00pm 26.2 W 3 4 1004.1 - 15.4 - - - - - - -
04/10:30pm 26.1 W 1 4 1004.4 - 15.4 - - - - - - -
04/10:00pm 26.1 SW 3 4 1004.5 - 15.4 - - - - - - -
04/09:30pm 25.9 W 3 4 1004.2 - 15.4 - - - - - - -
04/09:00pm 26.0 SW 5 6 1004.1 - 15.4 Recent precip. - - - - - -
04/08:30pm 25.8 W 6 8 1003.9 - 15.4 - - - - - - -
04/08:00pm 25.9 WSW 7 8 1003.7 - 14.0 - - - - - - -
04/07:30pm 26.1 WSW 5 7 1003.7 - 13.8 - - - - - - -
04/07:00pm 26.3 WSW 6 9 1003.4 - 13.2 - - - - - - -
04/06:30pm 26.6 WSW 9 12 1003.1 - 13.0 - - - - - - -
04/06:00pm 27.4 W 5 10 1002.7 - 10.4 Recent precip. - - - - - -
04/05:30pm 28.0 SW 6 9 1001.8 - 7.6 - - - - - - -
04/05:00pm 29.5 NNE 14 17 1001.2 - 0.4 - - - - - - -
04/04:30pm 30.2 NNE 15 18 1000.8 - 0.0 - - - - - - -
04/04:00pm 30.5 NNE 16 19 1000.8 - 0.0 - - - - - - -
04/03:30pm 30.8 NNE 15 17 1000.9 - 0.0 - - - - - - -
04/03:00pm 31.1 NNE 17 20 1000.8 - 0.0 - - - - - - -
04/02:30pm 32.1 NNE 16 18 1001.2 - 0.0 - - - - - - -
04/02:00pm 31.3 NNE 16 18 1002.0 - 0.0 - - - - - - -
04/01:30pm 32.0 NNE 14 17 1002.3 - 0.0 - - - - - - -
04/01:00pm 32.8 N 5 8 1002.8 - 0.0 - - - - - - -
04/12:30pm 34.2 WNW 7 11 1003.2 - 0.0 - - - - - - -
04/12:00pm 33.4 W 6 10 1003.3 - 0.0 - - - - - - -
04/11:30am 33.1 WSW 6 10 1003.4 - 0.0 - - - - - - -
04/11:00am 32.8 W 7 11 1003.8 - 0.0 - - - - - - -
04/10:30am 32.4 WNW 4 6 1004.1 - 0.0 - - - - - - -
04/10:00am 31.5 W 7 9 1004.2 - 0.0 - - - - - - -
04/09:30am 30.0 W 8 13 1004.2 - 0.0 - - - - - - -
04/09:00am 29.6 W 9 13 1004.2 - 30.4 Recent precip. - - - - - -
04/08:30am 28.6 WSW 8 12 1004.2 - 30.2 - - - - - - -
04/08:00am 27.3 W 7 14 1004.2 - 30.2 - - - - - - -
04/07:30am 25.9 W 7 11 1004.1 - 30.2 - - - - - - -
04/07:00am 25.5 WSW 6 8 1003.6 - 30.2 - - - - - - -
04/06:30am 25.0 W 6 8 1003.3 - 30.2 - - - - - - -
04/06:00am 24.8 WNW 4 5 1003.2 - 30.2 - - - - - - -
04/05:30am 24.8 W 6 8 1003.1 - 30.2 - - - - - - -
04/05:00am 24.9 WSW 8 11 1003.3 - 30.2 - - - - - - -
04/04:30am 24.8 WSW 8 12 1003.4 - 30.2 - - - - - - -
04/04:00am 24.7 WSW 10 15 1003.3 - 30.2 - - - - - - -
04/03:30am 24.7 WSW 10 13 1003.4 - 30.2 - - - - - - -
04/03:00am 24.7 WSW 7 10 1003.7 - 30.2 - - - - - - -
04/02:30am 24.6 WSW 9 13 1004.1 - 30.2 - - - - - - -
04/02:00am 24.8 WSW 5 8 1004.3 - 30.2 - - - - - - -
04/01:30am 24.8 WNW 4 6 1004.6 - 30.2 - - - - - - -
04/01:00am 25.0 SW 5 7 1004.5 - 30.2 - - - - - - -
04/12:30am 24.9 WSW 8 12 1004.9 - 29.8 - - - - - - -
04/12:00am 25.0 WSW 11 17 1005.3 - 29.6 Recent precip. - - - - - -
 
Date/Time
EST
Temp

°C
Wind Pressure Rain
since 9am
mm
Weather Cloud Vis
km
Sea
Height
m
Swell
Dir
 
Speed
knots
Gust
knots
hPa Trend Height
m
Period
s
Dir
03/11:30pm 25.0 WSW 10 14 1005.7 - 29.4 - - - - - - -
03/11:00pm 24.8 SW 9 13 1006.1 - 28.6 - - - - - - -
03/10:30pm 24.7 WSW 8 13 1007.0 - 26.6 - - - - - - -
03/10:00pm 24.7 W 7 11 1007.8 - 23.0 - - - - - - -
03/09:30pm 24.6 SW 4 5 1007.6 - 19.6 - - - - - - -
03/09:00pm 24.5 W 8 11 1007.4 - 18.2 Rain - - - - - -
03/08:30pm 24.8 WSW 15 22 1007.1 - 13.2 - - - - - - -
03/08:00pm 25.1 W 18 30 1005.9 - 4.6 - - - - - - -
03/07:52pm 26.5 WNW 16 34 1005.5 - 2.4 - - - - - - -
03/07:49pm 28.2 NW 11 34 1005.2 - 2.2 - - - - - - -
03/07:30pm 29.4 N 13 15 1003.8 - 2.2 - - - - - - -
03/07:00pm 29.9 N 13 16 1003.5 - 2.2 - - - - - - -
03/06:30pm 30.0 NNE 7 9 1003.3 - 2.2 - - - - - - -
03/06:00pm 30.3 NNE 9 11 1002.6 - 2.2 Recent precip. - - - - - -
03/05:30pm 30.6 NNE 5 7 1002.4 - 2.0 - - - - - - -
03/05:00pm 30.2 NNE 6 8 1002.0 - 2.0 - - - - - - -
03/04:30pm 29.6 NE 11 14 1001.6 - 2.0 - - - - - - -
03/04:00pm 32.5 NNW 7 13 1001.4 - 0.0 - - - - - - -
03/03:30pm 34.3 NW 7 13 1001.1 - 0.0 - - - - - - -
03/03:00pm 34.7 SE 6 13 1001.2 - 0.0 - - - - - - -
03/02:30pm 35.5 NNW 7 10 1001.6 - 0.0 - - - - - - -
03/02:00pm 35.8 WNW 7 13 1002.2 - 0.0 - - - - - - -
03/01:30pm 36.7 WNW 9 13 1002.6 - 0.0 - - - - - - -
03/01:00pm 36.6 WNW 10 17 1003.1 - 0.0 - - - - - - -
03/12:30pm 36.2 WNW 9 16 1003.6 - 0.0 - - - - - - -
03/12:00pm 35.7 WNW 9 15 1004.2 - 0.0 - - - - - - -
03/11:30am 34.7 WNW 8 12 1004.8 - 0.0 - - - - - - -
03/11:00am 34.5 WNW 9 15 1005.1 - 0.0 - - - - - - -
03/10:30am 33.4 WNW 8 16 1005.4 - 0.0 - - - - - - -

Other Formats:

Comma delimited format used in spreadsheet applications
http://www.bom.gov.au/fwo/IDQ60701/IDQ60701.94373.axf

JavaScript Object Notation format (JSON) in row-major order
http://www.bom.gov.au/fwo/IDQ60701/IDQ60701.94373.json